createdAt,value
2022-08-05T00:02:22.450Z,57.60
2022-08-05T00:04:55.515Z,57.70
2022-08-05T00:07:58.807Z,57.70
2022-08-05T00:10:10.805Z,58.10
2022-08-05T00:12:55.895Z,58.10
2022-08-05T00:15:58.239Z,58.20
2022-08-05T00:18:15.066Z,58.00
2022-08-05T00:20:50.187Z,57.90
2022-08-05T00:23:17.531Z,57.90
2022-08-05T00:26:05.000Z,57.90
2022-08-05T00:28:31.958Z,58.30
2022-08-05T00:31:02.904Z,58.40
2022-08-05T00:34:56.732Z,58.40
2022-08-05T00:37:10.421Z,58.40
2022-08-05T00:39:13.389Z,58.70
2022-08-05T00:41:51.528Z,59.00
2022-08-05T00:44:20.863Z,59.20
2022-08-05T00:46:54.204Z,59.50
2022-08-05T00:49:32.411Z,59.40
2022-08-05T00:52:00.463Z,59.30
2022-08-05T00:54:27.940Z,59.10
2022-08-05T00:56:55.111Z,59.30
2022-08-05T00:59:22.013Z,59.40
2022-08-05T01:01:49.094Z,59.40
2022-08-05T01:04:20.239Z,59.10
2022-08-05T01:06:53.911Z,59.00
2022-08-05T01:09:22.762Z,59.10
2022-08-05T01:11:52.966Z,59.50
2022-08-05T01:14:37.556Z,59.40
2022-08-05T01:17:11.247Z,59.50
2022-08-05T01:20:01.594Z,59.50
2022-08-05T01:23:14.936Z,59.60
2022-08-05T01:26:26.395Z,59.60
2022-08-05T01:29:03.522Z,60.00
2022-08-05T01:31:42.558Z,60.20
2022-08-05T01:34:19.496Z,60.30
2022-08-05T01:36:55.049Z,60.50
2022-08-05T01:39:36.811Z,60.10
2022-08-05T01:42:13.788Z,60.40
2022-08-05T01:44:44.187Z,60.70
2022-08-05T01:47:19.900Z,60.80
2022-08-05T01:50:02.122Z,60.80
2022-08-05T01:52:32.644Z,60.60
2022-08-05T01:55:02.197Z,60.70
2022-08-05T01:58:14.793Z,60.60
2022-08-05T02:00:29.922Z,60.70
2022-08-05T02:03:03.592Z,61.00
2022-08-05T02:05:36.515Z,61.20
2022-08-05T02:08:04.690Z,61.40
2022-08-05T02:10:41.770Z,61.00
2022-08-05T02:16:17.253Z,61.20
2022-08-05T02:19:07.204Z,61.40
2022-08-05T02:21:46.800Z,61.70
2022-08-05T02:24:23.033Z,61.80
2022-08-05T02:26:55.007Z,62.00
2022-08-05T02:29:59.037Z,62.10
2022-08-05T02:32:23.848Z,62.10
2022-08-05T02:34:59.046Z,62.50
2022-08-05T02:37:33.773Z,62.40
2022-08-05T02:40:03.256Z,62.40
2022-08-05T02:42:36.126Z,62.50
2022-08-05T02:45:04.497Z,62.50
2022-08-05T02:48:07.722Z,62.70
2022-08-05T02:50:23.880Z,62.90
2022-08-05T02:52:52.180Z,63.20
2022-08-05T02:55:51.989Z,63.10
2022-08-05T02:58:12.050Z,63.00
2022-08-05T03:00:41.597Z,63.00
2022-08-05T03:03:20.483Z,63.00
2022-08-05T03:06:53.942Z,63.10
2022-08-05T03:08:42.645Z,63.30
2022-08-05T03:11:56.932Z,63.10
2022-08-05T03:14:13.626Z,63.20
2022-08-05T03:16:41.045Z,63.50
2022-08-05T03:19:16.979Z,63.80
2022-08-05T03:21:55.457Z,63.80
2022-08-05T03:24:29.313Z,63.70
2022-08-05T03:26:59.395Z,63.90
2022-08-05T03:29:45.972Z,63.90
2022-08-05T03:32:17.692Z,64.00
2022-08-05T03:34:50.568Z,63.90
2022-08-05T03:37:19.939Z,64.10
2022-08-05T03:39:59.308Z,63.80
2022-08-05T03:42:29.055Z,64.10
2022-08-05T03:44:59.437Z,64.40
2022-08-05T03:47:35.210Z,64.40
2022-08-05T03:50:02.712Z,64.20
2022-08-05T03:52:37.211Z,64.10
2022-08-05T03:56:04.662Z,64.20
2022-08-05T03:58:22.921Z,64.20
2022-08-05T04:00:57.049Z,64.60
2022-08-05T04:03:29.346Z,64.50
2022-08-05T04:05:57.971Z,64.50
2022-08-05T04:08:35.105Z,64.70
2022-08-05T04:11:07.331Z,65.40
2022-08-05T04:13:51.106Z,64.80
2022-08-05T04:16:25.112Z,65.10
2022-08-05T04:18:57.945Z,65.00
2022-08-05T04:22:09.812Z,65.00
2022-08-05T04:24:19.663Z,65.40
2022-08-05T04:26:50.453Z,65.20
2022-08-05T04:29:17.351Z,65.40
2022-08-05T04:31:44.211Z,65.20
2022-08-05T04:34:18.941Z,65.20
2022-08-05T04:36:59.079Z,65.40
2022-08-05T04:39:27.968Z,65.70
2022-08-05T04:41:55.563Z,65.80
2022-08-05T04:44:30.025Z,65.90
2022-08-05T04:46:59.260Z,66.00
2022-08-05T04:49:38.807Z,66.20
2022-08-05T04:52:15.140Z,65.90
2022-08-05T04:54:42.279Z,66.00
2022-08-05T04:57:09.155Z,66.10
2022-08-05T04:59:38.278Z,66.00
2022-08-05T05:02:37.701Z,65.80
2022-08-05T05:05:02.381Z,66.10
2022-08-05T05:07:32.382Z,66.10
2022-08-05T05:10:04.236Z,66.20
2022-08-05T05:12:31.253Z,66.10
2022-08-05T05:14:58.262Z,66.00
2022-08-05T05:17:55.780Z,66.00
2022-08-05T05:20:13.465Z,65.90
2022-08-05T05:22:44.017Z,66.20
2022-08-05T05:25:17.023Z,65.70
2022-08-05T05:27:53.754Z,65.60
2022-08-05T05:30:29.372Z,65.30
2022-08-05T05:33:15.809Z,65.10
2022-08-05T05:35:46.661Z,65.00
2022-08-05T05:38:14.261Z,65.00
2022-08-05T05:40:49.933Z,64.80
2022-08-05T05:43:21.774Z,64.90
2022-08-05T05:45:55.256Z,65.00
2022-08-05T05:48:27.762Z,65.20
2022-08-05T05:50:55.182Z,65.10
2022-08-05T05:53:22.998Z,64.90
2022-08-05T05:56:01.055Z,65.30
2022-08-05T05:58:32.350Z,64.90
2022-08-05T06:01:12.776Z,64.40
2022-08-05T06:04:00.890Z,63.30
2022-08-05T06:06:31.448Z,63.80
2022-08-05T06:09:04.799Z,64.10
2022-08-05T06:11:32.829Z,64.80
2022-08-05T06:14:00.848Z,64.00
2022-08-05T06:16:36.665Z,63.40
2022-08-05T06:19:07.452Z,63.60
2022-08-05T06:21:38.452Z,63.60
2022-08-05T06:24:11.614Z,63.10
2022-08-05T06:26:51.771Z,63.50
2022-08-05T06:29:25.321Z,63.30
2022-08-05T06:32:21.107Z,63.10
2022-08-05T06:34:53.609Z,63.00
2022-08-05T06:37:52.307Z,63.10
2022-08-05T06:40:12.172Z,63.50
2022-08-05T06:42:39.733Z,63.00
2022-08-05T06:45:08.640Z,63.10
2022-08-05T06:48:37.015Z,63.20
2022-08-05T06:50:24.906Z,63.00
2022-08-05T06:52:58.717Z,62.30
2022-08-05T06:55:36.182Z,62.00
2022-08-05T06:58:29.928Z,61.80
2022-08-05T07:00:51.199Z,61.70
2022-08-05T07:03:18.444Z,61.90
2022-08-05T07:05:46.317Z,62.00
2022-08-05T07:08:13.717Z,62.00
2022-08-05T07:10:52.856Z,61.90
2022-08-05T07:13:58.681Z,61.20
2022-08-05T07:17:58.540Z,60.70
2022-08-05T07:22:28.308Z,61.00
2022-08-05T07:25:23.802Z,60.90
2022-08-05T07:27:57.770Z,60.40
2022-08-05T07:30:38.965Z,60.20
2022-08-05T07:33:16.454Z,59.90
2022-08-05T07:36:05.059Z,59.80
2022-08-05T07:38:42.765Z,59.50
2022-08-05T07:42:08.331Z,58.80
2022-08-05T07:44:06.106Z,58.90
2022-08-05T07:46:41.613Z,58.50
2022-08-05T07:49:15.314Z,58.40
2022-08-05T07:51:54.038Z,58.10
2022-08-05T07:54:30.981Z,57.60
2022-08-05T07:57:18.051Z,57.10
2022-08-05T07:59:48.978Z,57.00
2022-08-05T08:02:17.635Z,56.80
2022-08-05T08:04:47.338Z,56.90
2022-08-05T08:07:22.253Z,57.10
2022-08-05T08:09:52.351Z,57.20
2022-08-05T08:12:33.627Z,57.10
2022-08-05T08:15:09.709Z,57.00
2022-08-05T08:17:50.544Z,57.30
2022-08-05T08:20:44.067Z,57.20
2022-08-05T08:24:01.931Z,56.70
2022-08-05T08:26:02.693Z,56.50
2022-08-05T08:28:36.311Z,56.50
2022-08-05T08:31:06.668Z,56.70
2022-08-05T08:33:36.154Z,56.40
2022-08-05T08:36:39.009Z,56.60
2022-08-05T08:38:55.573Z,56.50
2022-08-05T08:41:26.287Z,56.40
2022-08-05T08:45:17.858Z,56.50
2022-08-05T08:47:04.054Z,56.30
2022-08-05T08:50:06.213Z,55.90
2022-08-05T08:52:42.069Z,55.60
2022-08-05T08:55:19.559Z,55.90
2022-08-05T08:58:02.334Z,55.60
2022-08-05T09:00:30.269Z,54.50
2022-08-05T09:03:01.351Z,54.90
2022-08-05T09:05:38.654Z,55.00
2022-08-05T09:08:16.680Z,55.00
2022-08-05T09:10:46.737Z,54.40
2022-08-05T09:13:15.464Z,53.90
2022-08-05T09:15:42.987Z,54.00
2022-08-05T09:18:13.469Z,54.10
2022-08-05T09:20:43.598Z,54.20
2022-08-05T09:23:18.734Z,54.00
2022-08-05T09:26:02.077Z,52.80
2022-08-05T09:28:34.359Z,53.00
2022-08-05T09:31:43.646Z,52.90
2022-08-05T09:34:04.178Z,52.60
2022-08-05T09:36:54.805Z,52.30
2022-08-05T09:39:41.228Z,52.00
2022-08-05T09:42:24.557Z,51.50
2022-08-05T09:44:57.485Z,50.00
2022-08-05T09:47:36.308Z,50.00
2022-08-05T09:50:38.032Z,49.60
2022-08-05T09:53:07.031Z,49.50
2022-08-05T09:55:56.420Z,49.60
2022-08-05T09:58:25.074Z,49.00
2022-08-05T10:00:53.984Z,49.00
2022-08-05T10:03:21.317Z,49.50
2022-08-05T10:06:07.612Z,49.50
2022-08-05T10:08:42.944Z,48.90
2022-08-05T10:11:18.404Z,48.20
2022-08-05T10:13:48.384Z,47.10
2022-08-05T10:16:32.098Z,47.20
2022-08-05T10:19:08.500Z,47.20
2022-08-05T10:21:39.969Z,47.50
2022-08-05T10:24:13.487Z,47.50
2022-08-05T10:26:51.654Z,47.20
2022-08-05T10:29:23.858Z,46.70
2022-08-05T10:32:52.724Z,46.80
2022-08-05T10:35:01.482Z,46.80
2022-08-05T10:37:37.302Z,47.00
2022-08-05T10:40:45.023Z,46.40
2022-08-05T10:43:20.612Z,46.60
2022-08-05T10:46:06.380Z,46.10
2022-08-05T10:48:56.983Z,46.20
2022-08-05T10:51:29.096Z,46.00
2022-08-05T10:54:01.874Z,45.60
2022-08-05T10:56:53.038Z,44.70
2022-08-05T11:00:03.102Z,44.70
2022-08-05T11:02:34.496Z,44.90
2022-08-05T11:05:06.574Z,44.60
2022-08-05T11:08:01.813Z,44.40
2022-08-05T11:10:27.129Z,43.90
2022-08-05T11:12:55.979Z,43.50
2022-08-05T11:16:00.011Z,43.70
2022-08-05T11:18:26.315Z,43.30
2022-08-05T11:20:54.099Z,43.50
2022-08-05T11:24:02.947Z,44.00
2022-08-05T11:26:28.526Z,43.20
2022-08-05T11:29:11.778Z,42.60
2022-08-05T11:31:56.766Z,42.60
2022-08-05T11:34:51.032Z,42.70
2022-08-05T11:38:30.195Z,41.80
2022-08-05T11:41:35.061Z,41.30
2022-08-05T11:44:05.579Z,41.70
2022-08-05T11:46:58.113Z,41.50
2022-08-05T11:49:29.079Z,41.50
2022-08-05T11:52:01.582Z,41.70
2022-08-05T11:54:38.263Z,41.70
2022-08-05T11:57:25.919Z,41.40
2022-08-05T11:59:54.896Z,41.30
2022-08-05T12:02:33.763Z,40.50
2022-08-05T12:05:08.252Z,40.20
2022-08-05T12:08:07.348Z,39.90
2022-08-05T12:10:42.997Z,39.60
2022-08-05T12:13:27.908Z,40.20
2022-08-05T12:16:15.550Z,39.20
2022-08-05T12:18:49.414Z,39.60
2022-08-05T12:21:26.965Z,39.00
2022-08-05T12:24:17.289Z,39.30
2022-08-05T12:26:48.081Z,38.80
2022-08-05T12:29:23.473Z,38.60
2022-08-05T12:31:54.348Z,38.10
2022-08-05T12:34:37.048Z,38.50
2022-08-05T12:37:17.061Z,37.70
2022-08-05T12:39:51.928Z,37.50
2022-08-05T12:42:21.774Z,37.20
2022-08-05T12:44:52.409Z,37.10
2022-08-05T12:47:30.738Z,36.60
2022-08-05T12:50:04.139Z,36.60
2022-08-05T12:52:38.723Z,36.80
2022-08-05T12:55:25.883Z,37.40
2022-08-05T12:58:48.634Z,37.50
2022-08-05T13:02:03.555Z,37.00
2022-08-05T13:03:34.684Z,35.90
2022-08-05T13:06:12.548Z,36.10
2022-08-05T13:08:40.354Z,35.70
2022-08-05T13:11:07.959Z,35.60
2022-08-05T13:14:05.324Z,35.30
2022-08-05T13:16:27.778Z,35.30
2022-08-05T13:18:59.893Z,35.40
2022-08-05T13:21:28.555Z,35.30
2022-08-05T13:24:08.676Z,36.10
2022-08-05T13:26:36.216Z,35.20
2022-08-05T13:29:04.987Z,34.60
2022-08-05T13:31:33.781Z,34.50
2022-08-05T13:34:22.573Z,34.70
2022-08-05T13:36:53.152Z,34.80
2022-08-05T13:39:24.401Z,34.30
2022-08-05T13:42:07.992Z,34.20
2022-08-05T13:44:45.312Z,33.50
2022-08-05T13:47:28.143Z,33.70
2022-08-05T13:50:06.581Z,33.30
2022-08-05T13:52:38.456Z,33.80
2022-08-05T13:55:07.853Z,33.90
2022-08-05T13:57:48.616Z,34.00
2022-08-05T14:00:27.042Z,33.90
2022-08-05T14:03:01.022Z,34.30
2022-08-05T14:05:48.483Z,33.60
2022-08-05T14:08:20.800Z,32.80
2022-08-05T14:10:54.413Z,33.30
2022-08-05T14:13:32.272Z,32.60
2022-08-05T14:16:09.087Z,32.10
2022-08-05T14:18:38.407Z,31.80
2022-08-05T14:22:08.295Z,31.60
2022-08-05T14:23:52.276Z,31.60
2022-08-05T14:26:36.995Z,31.60
2022-08-05T14:29:06.041Z,31.70
2022-08-05T14:32:02.703Z,31.20
2022-08-05T14:34:35.122Z,30.70
2022-08-05T14:37:03.810Z,29.90
2022-08-05T14:39:49.761Z,29.70
2022-08-05T14:42:20.806Z,29.90
2022-08-05T14:44:48.874Z,29.90
2022-08-05T14:47:15.909Z,30.00
2022-08-05T14:49:59.246Z,29.60
2022-08-05T14:52:51.745Z,30.00
2022-08-05T14:55:15.766Z,29.50
2022-08-05T14:57:56.299Z,29.50
2022-08-05T15:00:28.095Z,29.90
2022-08-05T15:02:56.942Z,29.70
2022-08-05T15:05:29.979Z,29.60
2022-08-05T15:08:11.202Z,28.80
2022-08-05T15:10:43.454Z,29.10
2022-08-05T15:13:13.170Z,29.70
2022-08-05T15:15:53.950Z,29.50
2022-08-05T15:18:21.757Z,29.30
2022-08-05T15:20:48.847Z,29.50
2022-08-05T15:23:16.222Z,29.60
2022-08-05T15:25:51.916Z,29.40
2022-08-05T15:28:22.977Z,29.20
2022-08-05T15:30:55.051Z,29.00
2022-08-05T15:34:05.813Z,29.00
2022-08-05T15:36:17.565Z,29.20
2022-08-05T15:40:41.219Z,29.30
2022-08-05T15:41:56.191Z,29.10
2022-08-05T15:44:26.207Z,28.80
2022-08-05T15:46:55.720Z,29.30
2022-08-05T15:49:41.821Z,29.60
2022-08-05T15:52:13.227Z,29.80
2022-08-05T15:54:43.486Z,30.00
2022-08-05T15:57:10.880Z,29.50
2022-08-05T15:59:39.708Z,29.40
2022-08-05T16:02:09.656Z,29.80
2022-08-05T16:04:42.564Z,30.00
2022-08-05T16:07:10.764Z,30.20
2022-08-05T16:09:38.145Z,30.00
2022-08-05T16:12:09.029Z,30.10
2022-08-05T16:14:36.088Z,30.60
2022-08-05T16:17:03.633Z,30.40
2022-08-05T16:20:05.525Z,30.60
2022-08-05T16:22:18.077Z,30.40
2022-08-05T16:24:54.526Z,31.20
2022-08-05T16:27:47.245Z,30.90
2022-08-05T16:30:23.419Z,31.00
2022-08-05T16:32:54.222Z,31.40
2022-08-05T16:35:28.032Z,31.60
2022-08-05T16:38:03.627Z,31.50
2022-08-05T16:40:47.695Z,31.30
2022-08-05T16:43:19.218Z,31.30
2022-08-05T16:46:06.167Z,31.20
2022-08-05T16:48:35.538Z,31.50
2022-08-05T16:51:03.952Z,31.50
2022-08-05T16:54:03.247Z,31.10
2022-08-05T16:56:30.412Z,31.70
2022-08-05T16:58:58.843Z,31.60
2022-08-05T17:01:28.285Z,31.30
2022-08-05T17:04:15.238Z,31.70
2022-08-05T17:06:42.436Z,32.30
2022-08-05T17:09:09.595Z,31.80
2022-08-05T17:11:48.581Z,32.00
2022-08-05T17:14:34.329Z,32.40
2022-08-05T17:17:04.272Z,32.00
2022-08-05T17:19:31.888Z,32.30
2022-08-05T17:22:01.346Z,32.90
2022-08-05T17:24:38.570Z,33.10
2022-08-05T17:27:07.610Z,33.60
2022-08-05T17:29:41.181Z,34.00
2022-08-05T17:32:17.311Z,33.80
2022-08-05T17:34:46.166Z,34.40
2022-08-05T17:37:36.026Z,34.70
2022-08-05T17:40:02.306Z,34.50
2022-08-05T17:42:32.242Z,34.80
2022-08-05T17:45:09.743Z,35.40
2022-08-05T17:47:37.649Z,35.60
2022-08-05T17:50:11.022Z,36.00
2022-08-05T17:52:53.032Z,36.20
2022-08-05T17:55:22.835Z,36.60
2022-08-05T17:58:02.138Z,36.60
2022-08-05T18:00:29.812Z,36.70
2022-08-05T18:02:57.364Z,37.10
2022-08-05T18:05:28.113Z,37.40
2022-08-05T18:08:02.199Z,37.70
2022-08-05T18:10:32.277Z,38.00
2022-08-05T18:13:02.003Z,38.30
2022-08-05T18:15:38.492Z,38.60
2022-08-05T18:18:11.165Z,38.80
2022-08-05T18:20:38.909Z,39.00
2022-08-05T18:23:09.230Z,39.20
2022-08-05T18:25:44.923Z,39.20
2022-08-05T18:28:16.229Z,39.40
2022-08-05T18:30:51.522Z,39.50
2022-08-05T18:33:23.146Z,39.80
2022-08-05T18:36:03.261Z,40.20
2022-08-05T18:38:35.967Z,40.10
2022-08-05T18:41:54.957Z,40.40
2022-08-05T18:43:54.353Z,40.40
2022-08-05T18:46:21.302Z,40.20
2022-08-05T18:48:53.870Z,40.50
2022-08-05T18:52:06.356Z,40.50
2022-08-05T18:54:27.627Z,40.50
2022-08-05T18:57:01.642Z,40.80
2022-08-05T18:59:43.686Z,40.80
2022-08-05T19:02:26.834Z,41.00
2022-08-05T19:05:03.235Z,41.10
2022-08-05T19:07:46.363Z,41.20
2022-08-05T19:10:18.827Z,41.80
2022-08-05T19:12:53.779Z,42.20
2022-08-05T19:15:56.807Z,42.50
2022-08-05T19:18:10.749Z,42.80
2022-08-05T19:20:48.740Z,42.90
2022-08-05T19:24:03.621Z,43.10
2022-08-05T19:26:03.141Z,43.50
2022-08-05T19:28:34.718Z,43.70
2022-08-05T19:31:05.848Z,42.90
2022-08-05T19:33:36.781Z,43.20
2022-08-05T19:36:06.177Z,43.90
2022-08-05T19:38:35.857Z,44.20
2022-08-05T19:41:07.373Z,44.30
2022-08-05T19:44:06.045Z,44.00
2022-08-05T19:46:30.350Z,44.40
2022-08-05T19:49:02.803Z,44.50
2022-08-05T19:52:05.097Z,44.70
2022-08-05T19:54:27.254Z,45.00
2022-08-05T19:57:06.574Z,45.20
2022-08-05T19:59:54.539Z,45.40
2022-08-05T20:02:28.169Z,45.80
2022-08-05T20:04:58.788Z,46.20
2022-08-05T20:07:45.833Z,46.20
2022-08-05T20:10:14.723Z,46.20
2022-08-05T20:12:46.116Z,46.60
2022-08-05T20:15:23.147Z,47.10
2022-08-05T20:18:11.005Z,47.30
2022-08-05T20:20:55.806Z,46.90
2022-08-05T20:23:39.431Z,46.30
2022-08-05T20:26:15.978Z,47.00
2022-08-05T20:28:52.832Z,47.60
2022-08-05T20:31:21.900Z,47.90
2022-08-05T20:33:50.345Z,48.10
2022-08-05T20:36:19.007Z,48.00
2022-08-05T20:38:54.114Z,48.00
2022-08-05T20:41:27.352Z,47.70
2022-08-05T20:44:17.764Z,48.00
2022-08-05T20:46:47.749Z,47.00
2022-08-05T20:49:15.388Z,47.10
2022-08-05T20:51:53.392Z,47.10
2022-08-05T20:54:21.311Z,47.60
2022-08-05T20:56:48.930Z,46.20
2022-08-05T20:59:26.690Z,46.20
2022-08-05T21:01:56.485Z,46.00
2022-08-05T21:04:27.031Z,46.10
2022-08-05T21:06:54.761Z,45.50
2022-08-05T21:09:22.982Z,45.30
2022-08-05T21:12:10.694Z,46.20
2022-08-05T21:14:38.426Z,46.50
2022-08-05T21:17:06.162Z,45.90
2022-08-05T21:19:47.401Z,46.00
2022-08-05T21:22:23.424Z,46.00
2022-08-05T21:24:52.730Z,46.40
2022-08-05T21:27:25.041Z,46.90
2022-08-05T21:29:53.963Z,46.80
2022-08-05T21:32:27.209Z,46.90
2022-08-05T21:35:17.432Z,46.80
2022-08-05T21:37:52.927Z,47.00
2022-08-05T21:40:25.070Z,47.60
2022-08-05T21:42:53.944Z,47.60
2022-08-05T21:45:38.096Z,47.90
2022-08-05T21:48:08.968Z,47.80
2022-08-05T21:50:36.632Z,48.10
2022-08-05T21:53:16.276Z,48.00
2022-08-05T21:56:04.909Z,47.90
2022-08-05T21:58:32.096Z,48.30
2022-08-05T22:00:59.483Z,48.80
2022-08-05T22:03:48.850Z,48.40
2022-08-05T22:06:13.511Z,48.80
2022-08-05T22:08:42.730Z,49.30
2022-08-05T22:11:15.384Z,49.70
2022-08-05T22:14:19.510Z,49.70
2022-08-05T22:16:41.685Z,49.30
2022-08-05T22:19:57.486Z,49.70
2022-08-05T22:22:03.928Z,48.60
2022-08-05T22:24:52.311Z,48.60
2022-08-05T22:28:09.062Z,48.80
2022-08-05T22:30:24.827Z,48.50
2022-08-05T22:32:59.749Z,48.70
2022-08-05T22:35:26.799Z,48.60
2022-08-05T22:38:13.784Z,48.10
2022-08-05T22:40:42.336Z,48.40
2022-08-05T22:43:37.345Z,48.90
2022-08-05T22:46:11.836Z,48.40
2022-08-05T22:48:41.868Z,48.40
2022-08-05T22:51:15.999Z,49.30
2022-08-05T22:53:51.870Z,49.60
2022-08-05T22:56:30.753Z,49.40
2022-08-05T22:59:04.138Z,49.80
2022-08-05T23:02:05.125Z,49.80
2022-08-05T23:04:33.737Z,49.60
2022-08-05T23:07:00.962Z,49.70
2022-08-05T23:09:52.540Z,49.80
2022-08-05T23:12:16.280Z,49.60
2022-08-05T23:14:43.887Z,49.60
2022-08-05T23:17:34.480Z,50.40
2022-08-05T23:20:16.760Z,50.60
2022-08-05T23:22:47.342Z,50.60
2022-08-05T23:25:51.905Z,50.70
2022-08-05T23:28:06.976Z,50.90
2022-08-05T23:30:40.350Z,51.20
2022-08-05T23:33:22.554Z,51.30
2022-08-05T23:36:01.286Z,51.60
2022-08-05T23:38:28.350Z,51.80
2022-08-05T23:40:55.216Z,51.80
2022-08-05T23:43:24.937Z,51.90
2022-08-05T23:46:20.929Z,52.20
2022-08-05T23:49:00.389Z,52.30
2022-08-05T23:52:00.146Z,52.60
2022-08-05T23:54:33.989Z,52.90
2022-08-05T23:57:04.951Z,53.10
